Time;durP1;ratioP1;P1;durP2;ratioP2;P2;SDS_P1;SDS_P2;PMS_P1;PMS_P2;Temp;Humidity;BMP_temperature;BMP_pressure;BME280_temperature;BME280_humidity;BME280_pressure;Samples;Min_cycle;Max_cycle;Signal;HPM_P1;HPM_P2
2022/07/05 00:01:05;;;;;;;6.30;4.70;;;19.60;66.00;;;;;;5031641;28;47157;-61
2022/07/05 00:03:31;;;;;;;6.30;4.50;;;19.60;65.80;;;;;;5029979;28;46492;-60
2022/07/05 00:05:57;;;;;;;11.37;4.90;;;19.60;65.80;;;;;;5030429;28;46410;-60
2022/07/05 00:08:23;;;;;;;8.67;4.33;;;19.60;65.80;;;;;;5031559;28;46499;-61
2022/07/05 00:10:49;;;;;;;10.80;4.60;;;19.60;65.80;;;;;;5030010;28;46570;-61
2022/07/05 00:13:14;;;;;;;8.63;4.33;;;19.60;66.00;;;;;;5027339;28;45864;-61
2022/07/05 00:15:40;;;;;;;15.77;4.60;;;19.50;66.10;;;;;;5029514;28;46464;-61
2022/07/05 00:18:06;;;;;;;13.53;4.40;;;19.50;66.10;;;;;;5028279;28;47161;-60
2022/07/05 00:20:32;;;;;;;6.00;3.70;;;19.50;66.40;;;;;;5030937;28;46402;-61
2022/07/05 00:22:58;;;;;;;10.93;3.87;;;19.50;66.60;;;;;;5028384;28;46345;-61
2022/07/05 00:25:23;;;;;;;10.60;4.40;;;19.50;66.70;;;;;;5030414;28;46551;-59
2022/07/05 00:27:49;;;;;;;10.43;3.60;;;19.50;66.70;;;;;;5033915;28;46479;-60
2022/07/05 00:30:15;;;;;;;8.33;4.00;;;19.40;66.70;;;;;;5030053;28;46542;-60
2022/07/05 00:32:41;;;;;;;11.77;4.10;;;19.40;67.10;;;;;;5034951;28;45907;-60
2022/07/05 00:35:50;;;;;;;12.57;4.43;;;19.30;67.60;;;;;;5030531;28;46491;-59
2022/07/05 00:38:16;;;;;;;12.73;4.37;;;19.20;68.00;;;;;;5031063;28;46620;-61
2022/07/05 00:40:43;;;;;;;6.23;4.00;;;19.20;67.90;;;;;;5031102;28;46418;-61
2022/07/05 00:43:09;;;;;;;14.00;5.07;;;19.20;68.10;;;;;;5029130;28;46453;-61
2022/07/05 00:45:34;;;;;;;11.00;4.20;;;19.20;68.20;;;;;;5031003;28;46470;-61
2022/07/05 00:48:00;;;;;;;7.33;3.67;;;19.10;68.20;;;;;;5036944;28;46995;-62
2022/07/05 00:50:25;;;;;;;7.90;4.67;;;19.10;68.30;;;;;;5034237;28;46509;-62
2022/07/05 00:52:54;;;;;;;10.10;3.90;;;19.10;68.50;;;;;;5035268;28;46696;-61
2022/07/05 00:55:20;;;;;;;11.27;3.40;;;19.10;68.80;;;;;;5036096;28;46345;-60
2022/07/05 00:57:46;;;;;;;9.20;3.60;;;19.00;68.80;;;;;;5031964;28;46283;-60
2022/07/05 01:00:12;;;;;;;14.67;3.83;;;19.00;68.90;;;;;;5032971;28;46302;-60
2022/07/05 01:02:37;;;;;;;9.40;3.50;;;19.00;68.90;;;;;;5032298;28;46504;-61
2022/07/05 01:05:04;;;;;;;8.73;3.33;;;19.00;69.10;;;;;;5030573;28;46750;-61
2022/07/05 01:07:30;;;;;;;8.20;3.40;;;18.90;69.10;;;;;;5035630;28;46542;-61
2022/07/05 01:09:56;;;;;;;13.77;3.87;;;18.90;69.40;;;;;;5029561;28;47210;-61
2022/07/05 01:12:22;;;;;;;12.13;4.23;;;18.80;69.60;;;;;;5031602;28;46476;-61
2022/07/05 01:14:49;;;;;;;8.33;3.20;;;18.80;69.80;;;;;;5033549;28;46556;-60
2022/07/05 01:17:16;;;;;;;14.50;3.80;;;18.70;70.00;;;;;;5031627;28;46551;-61
2022/07/05 01:19:42;;;;;;;11.17;3.43;;;18.70;70.20;;;;;;5033286;28;47306;-61
2022/07/05 01:22:17;;;;;;;8.33;3.77;;;18.50;70.40;;;;;;5031400;28;46488;-61
2022/07/05 01:24:42;;;;;;;13.67;3.60;;;18.50;70.60;;;;;;5032543;28;46414;-62
2022/07/05 01:27:08;;;;;;;10.43;4.10;;;18.40;70.80;;;;;;5033988;28;46695;-60
2022/07/05 01:29:34;;;;;;;10.07;3.13;;;18.40;70.80;;;;;;5029774;28;46405;-62
2022/07/05 01:32:00;;;;;;;17.60;3.67;;;18.40;70.90;;;;;;5030361;28;46522;-61
2022/07/05 01:34:26;;;;;;;12.20;4.13;;;18.30;70.90;;;;;;5030126;28;45854;-61
2022/07/05 01:36:51;;;;;;;16.87;4.17;;;18.30;71.00;;;;;;5034191;28;46512;-62
2022/07/05 01:39:18;;;;;;;11.97;4.17;;;18.30;71.10;;;;;;5033799;28;46478;-62
2022/07/05 01:41:44;;;;;;;17.17;4.60;;;18.20;71.30;;;;;;5029276;28;46385;-61
2022/07/05 01:44:11;;;;;;;23.37;4.77;;;18.20;71.50;;;;;;5033065;28;46871;-61
2022/07/05 01:46:39;;;;;;;13.37;4.10;;;18.10;71.90;;;;;;5028990;28;46630;-60
2022/07/05 01:49:08;;;;;;;21.20;4.60;;;18.10;71.90;;;;;;5029979;28;47062;-60
2022/07/05 01:51:39;;;;;;;17.13;4.43;;;18.10;72.00;;;;;;5028397;28;46372;-60
2022/07/05 01:54:04;;;;;;;13.50;4.60;;;18.10;71.70;;;;;;5032079;28;46371;-62
2022/07/05 01:56:30;;;;;;;15.77;4.23;;;18.20;71.20;;;;;;5030642;28;46418;-59
2022/07/05 01:58:58;;;;;;;15.10;3.90;;;18.30;71.00;;;;;;5028754;28;46698;-61
2022/07/05 02:01:37;;;;;;;6.20;3.30;;;18.30;70.60;;;;;;5027452;28;46350;-61
2022/07/05 02:04:05;;;;;;;8.20;3.60;;;18.30;70.70;;;;;;5032807;28;46555;-61
2022/07/05 02:06:32;;;;;;;9.93;3.70;;;18.30;70.80;;;;;;5026345;28;46446;-61
2022/07/05 02:08:58;;;;;;;9.10;4.17;;;18.30;71.00;;;;;;5027895;28;47056;-61
2022/07/05 02:11:24;;;;;;;16.37;7.17;;;18.20;71.30;;;;;;5030444;28;46676;-61
2022/07/05 02:13:49;;;;;;;17.97;5.93;;;18.20;71.50;;;;;;5032839;28;46514;-62
2022/07/05 02:16:15;;;;;;;11.00;5.37;;;18.10;71.60;;;;;;5032971;28;46318;-61
2022/07/05 02:18:40;;;;;;;11.70;5.03;;;18.20;71.40;;;;;;5030969;28;47404;-61
2022/07/05 02:21:06;;;;;;;13.67;3.87;;;18.20;71.10;;;;;;5029948;28;46363;-61
2022/07/05 02:23:31;;;;;;;11.70;4.13;;;18.20;70.90;;;;;;5032250;28;46666;-60
2022/07/05 02:25:57;;;;;;;8.60;3.90;;;18.30;70.80;;;;;;5031762;28;46252;-61
2022/07/05 02:28:23;;;;;;;18.83;4.30;;;18.30;70.50;;;;;;5028726;28;46230;-61
2022/07/05 02:30:48;;;;;;;16.10;4.23;;;18.40;70.30;;;;;;5032878;28;46363;-62
2022/07/05 02:33:14;;;;;;;11.17;3.90;;;18.30;70.30;;;;;;5030458;28;46404;-60
2022/07/05 02:35:40;;;;;;;13.73;3.80;;;18.30;70.50;;;;;;5027660;28;46741;-61
2022/07/05 02:38:05;;;;;;;12.10;4.20;;;18.30;70.70;;;;;;5029595;28;46838;-61
2022/07/05 02:40:31;;;;;;;12.80;4.90;;;18.30;70.70;;;;;;5026452;28;46417;-61
2022/07/05 02:42:57;;;;;;;18.83;5.30;;;18.30;70.80;;;;;;5026827;28;46398;-60
2022/07/05 02:45:23;;;;;;;25.10;6.90;;;18.30;70.60;;;;;;5026633;28;45981;-61
2022/07/05 02:47:49;;;;;;;14.13;7.67;;;18.30;70.40;;;;;;5027005;28;46423;-61
2022/07/05 02:50:15;;;;;;;17.30;9.00;;;18.40;70.30;;;;;;5032417;28;46762;-61
2022/07/05 02:52:41;;;;;;;18.33;9.57;;;18.40;70.50;;;;;;5026329;28;46514;-61
2022/07/05 02:55:06;;;;;;;12.70;7.67;;;18.30;70.30;;;;;;5032807;28;46407;-61
2022/07/05 02:57:32;;;;;;;21.73;6.87;;;18.30;70.50;;;;;;5028030;28;47124;-62
2022/07/05 02:59:58;;;;;;;20.37;7.10;;;18.20;70.50;;;;;;5026606;28;45794;-60
2022/07/05 03:02:24;;;;;;;17.40;8.30;;;18.20;70.80;;;;;;5030495;28;46421;-62
2022/07/05 03:04:49;;;;;;;13.47;5.83;;;18.10;71.00;;;;;;5026073;28;46709;-60
2022/07/05 03:07:15;;;;;;;10.30;5.57;;;18.10;71.20;;;;;;5031833;28;47147;-61
2022/07/05 03:09:41;;;;;;;9.23;5.47;;;18.00;71.40;;;;;;5032009;28;46634;-61
2022/07/05 03:12:07;;;;;;;13.67;5.13;;;18.00;71.40;;;;;;5023077;28;46537;-61
2022/07/05 03:14:33;;;;;;;16.43;7.00;;;18.00;71.80;;;;;;5028997;28;46418;-60
2022/07/05 03:16:58;;;;;;;18.80;7.53;;;18.00;71.80;;;;;;5032525;28;46440;-60
2022/07/05 03:19:24;;;;;;;12.70;7.63;;;18.00;71.80;;;;;;5031417;28;46362;-61
2022/07/05 03:21:50;;;;;;;16.90;7.50;;;18.00;71.80;;;;;;5034299;28;45918;-62
2022/07/05 03:24:15;;;;;;;15.23;9.10;;;18.00;71.80;;;;;;5029848;28;46557;-60
2022/07/05 03:26:41;;;;;;;16.07;7.87;;;17.90;71.70;;;;;;5030186;28;46436;-61
2022/07/05 03:29:07;;;;;;;18.17;9.20;;;17.90;71.70;;;;;;5028983;28;46359;-60
2022/07/05 03:31:33;;;;;;;13.60;7.47;;;17.80;71.70;;;;;;5028162;28;46415;-60
2022/07/05 03:33:58;;;;;;;18.53;7.27;;;17.80;71.70;;;;;;5024823;28;46059;-61
2022/07/05 03:36:24;;;;;;;15.40;7.20;;;17.80;71.70;;;;;;5032532;28;48112;-62
2022/07/05 03:38:50;;;;;;;10.33;5.30;;;17.80;71.70;;;;;;5028025;28;46513;-61
2022/07/05 03:41:15;;;;;;;14.40;5.40;;;17.70;71.60;;;;;;5027959;28;46384;-61
2022/07/05 03:43:41;;;;;;;31.73;4.80;;;17.70;71.60;;;;;;5029089;28;46457;-60
2022/07/05 03:46:06;;;;;;;17.40;5.00;;;17.60;71.50;;;;;;5027218;28;47947;-60
2022/07/05 03:48:33;;;;;;;15.57;4.90;;;17.60;72.00;;;;;;5027477;28;46513;-60
2022/07/05 03:50:59;;;;;;;24.03;5.17;;;17.60;72.20;;;;;;5027196;28;46519;-61
2022/07/05 03:53:25;;;;;;;15.30;4.50;;;17.50;72.00;;;;;;5031474;28;46354;-60
2022/07/05 03:55:51;;;;;;;19.23;4.93;;;17.50;71.80;;;;;;5031054;28;46478;-61
2022/07/05 03:58:17;;;;;;;14.60;5.30;;;17.50;71.60;;;;;;5030761;28;46764;-61
2022/07/05 04:00:42;;;;;;;13.13;5.40;;;17.50;71.70;;;;;;5034696;28;46741;-60
2022/07/05 04:03:08;;;;;;;12.80;5.00;;;17.50;71.70;;;;;;5030595;28;46727;-60
2022/07/05 04:05:34;;;;;;;10.07;5.97;;;17.50;71.70;;;;;;5037768;28;47211;-59
2022/07/05 04:07:59;;;;;;;13.13;5.47;;;17.60;71.50;;;;;;5032700;28;46317;-61
2022/07/05 04:10:25;;;;;;;13.93;5.20;;;17.60;71.50;;;;;;5029371;28;46611;-61
2022/07/05 04:12:50;;;;;;;17.83;5.90;;;17.70;71.60;;;;;;5032108;28;46599;-62
2022/07/05 04:15:16;;;;;;;8.57;5.47;;;17.70;71.60;;;;;;5030990;28;46406;-61
2022/07/05 04:17:50;;;;;;;14.77;4.93;;;17.80;71.70;;;;;;5031832;28;46415;-61
2022/07/05 04:20:16;;;;;;;12.23;5.70;;;17.90;71.70;;;;;;5031787;28;46702;-61
2022/07/05 04:22:41;;;;;;;5.80;4.23;;;17.90;71.80;;;;;;5029542;28;46439;-60
2022/07/05 04:25:16;;;;;;;18.83;5.60;;;18.00;71.90;;;;;;5031926;28;47045;-61
2022/07/05 04:27:47;;;;;;;10.57;4.63;;;18.10;71.40;;;;;;5030799;28;46525;-61
2022/07/05 04:30:13;;;;;;;19.63;5.60;;;18.20;71.10;;;;;;5032268;28;46464;-60
2022/07/05 04:32:39;;;;;;;14.60;4.97;;;18.20;71.00;;;;;;5032006;28;46339;-62
2022/07/05 04:35:05;;;;;;;12.70;5.50;;;18.30;70.60;;;;;;5032801;28;46632;-61
2022/07/05 04:37:30;;;;;;;21.87;5.20;;;18.40;70.50;;;;;;5031986;28;46458;-61
2022/07/05 04:39:56;;;;;;;8.50;5.10;;;18.50;71.50;;;;;;5030383;28;46410;-60
2022/07/05 04:42:22;;;;;;;17.70;5.70;;;18.60;70.00;;;;;;5034138;28;46455;-60
2022/07/05 04:44:47;;;;;;;10.50;4.70;;;18.70;69.60;;;;;;5031755;28;47176;-60
2022/07/05 04:47:13;;;;;;;9.30;4.20;;;18.90;69.20;;;;;;5035721;28;46458;-60
2022/07/05 04:49:38;;;;;;;10.90;4.23;;;19.60;67.60;;;;;;5036814;28;46430;-61
2022/07/05 04:52:04;;;;;;;10.10;3.20;;;21.20;65.80;;;;;;5033774;28;46537;-59
2022/07/05 04:54:30;;;;;;;7.60;3.73;;;22.70;63.00;;;;;;5033787;28;46495;-62
2022/07/05 04:56:55;;;;;;;15.93;3.73;;;24.00;59.30;;;;;;5032781;28;46390;-61
2022/07/05 04:59:21;;;;;;;8.93;3.57;;;25.00;56.10;;;;;;5034074;28;46867;-61
2022/07/05 05:01:46;;;;;;;9.73;3.53;;;25.90;52.80;;;;;;5034231;28;46408;-62
2022/07/05 05:04:12;;;;;;;8.10;3.33;;;26.60;50.60;;;;;;5033994;28;47091;-61
2022/07/05 05:06:38;;;;;;;13.00;3.30;;;27.10;48.30;;;;;;5033770;28;46689;-62
2022/07/05 05:09:04;;;;;;;19.43;3.90;;;27.70;45.90;;;;;;5029698;28;46404;-59
2022/07/05 05:11:29;;;;;;;10.00;3.20;;;28.20;43.90;;;;;;5032476;28;46474;-60
2022/07/05 05:13:55;;;;;;;13.20;4.10;;;29.00;41.40;;;;;;5028669;28;47083;-60
2022/07/05 05:16:20;;;;;;;9.30;3.77;;;29.40;39.70;;;;;;5029864;28;46475;-60
2022/07/05 05:18:46;;;;;;;6.60;3.13;;;29.90;37.80;;;;;;5031449;28;46419;-61
2022/07/05 05:21:12;;;;;;;7.07;3.73;;;30.30;35.70;;;;;;5028450;28;46557;-61
2022/07/05 05:23:37;;;;;;;7.87;3.93;;;30.60;34.10;;;;;;5032457;28;46433;-60
2022/07/05 05:26:03;;;;;;;15.90;3.47;;;30.80;32.90;;;;;;5030212;28;46422;-61
2022/07/05 05:28:28;;;;;;;6.90;3.70;;;31.20;31.40;;;;;;5028892;28;46364;-59
2022/07/05 05:30:55;;;;;;;10.63;4.10;;;31.60;29.50;;;;;;5032031;28;46429;-60
2022/07/05 05:33:20;;;;;;;7.37;3.33;;;31.90;29.10;;;;;;5028436;28;47091;-59
2022/07/05 05:35:46;;;;;;;6.50;3.87;;;32.10;28.00;;;;;;5036667;28;45864;-60
2022/07/05 05:38:11;;;;;;;12.37;3.30;;;32.30;26.90;;;;;;5034056;28;45896;-61
2022/07/05 05:40:38;;;;;;;5.80;2.93;;;32.60;26.10;;;;;;5037625;28;46613;-60
2022/07/05 05:43:04;;;;;;;8.63;3.33;;;32.80;25.60;;;;;;5033094;28;46222;-59
2022/07/05 05:45:30;;;;;;;10.80;3.67;;;32.90;24.60;;;;;;5034492;28;46409;-59
2022/07/05 05:47:58;;;;;;;8.50;3.10;;;33.10;23.90;;;;;;5034586;28;46663;-60
2022/07/05 05:50:25;;;;;;;6.97;3.47;;;33.10;22.90;;;;;;5037199;28;46093;-59
2022/07/05 05:52:50;;;;;;;10.30;3.40;;;33.40;21.70;;;;;;5035742;28;46433;-60
2022/07/05 05:55:17;;;;;;;6.47;2.83;;;33.30;20.80;;;;;;5032382;28;46325;-61
2022/07/05 05:57:42;;;;;;;8.93;2.80;;;33.00;21.20;;;;;;5036444;28;46515;-61
2022/07/05 06:00:09;;;;;;;12.17;3.60;;;31.70;23.90;;;;;;5033072;28;46388;-60
2022/07/05 06:02:34;;;;;;;8.60;3.10;;;29.90;27.50;;;;;;5043655;28;48028;-60
2022/07/05 06:05:00;;;;;;;4.00;2.50;;;28.70;30.00;;;;;;5031042;28;46426;-60
2022/07/05 06:07:25;;;;;;;8.10;3.60;;;27.70;32.80;;;;;;5033337;28;46524;-61
2022/07/05 06:09:51;;;;;;;11.60;3.10;;;27.10;34.70;;;;;;5028422;28;46583;-61
2022/07/05 06:12:17;;;;;;;7.50;3.50;;;26.50;36.10;;;;;;5031369;28;47209;-61
2022/07/05 06:14:42;;;;;;;10.57;3.03;;;26.20;36.80;;;;;;5029256;28;46457;-59
2022/07/05 06:17:08;;;;;;;6.27;2.63;;;26.10;37.20;;;;;;5029621;28;46440;-61
2022/07/05 06:19:34;;;;;;;8.13;3.10;;;26.00;37.00;;;;;;5030255;28;45923;-57
2022/07/05 06:21:59;;;;;;;8.23;2.77;;;26.20;36.20;;;;;;5028403;28;46520;-60
2022/07/05 06:24:25;;;;;;;7.30;3.20;;;26.50;34.60;;;;;;5028852;28;46298;-60
2022/07/05 06:26:50;;;;;;;12.00;2.97;;;26.70;33.20;;;;;;5031582;28;46368;-61
2022/07/05 06:29:16;;;;;;;5.07;2.73;;;26.60;33.10;;;;;;5033253;28;46362;-59
2022/07/05 06:31:42;;;;;;;7.70;2.90;;;26.70;32.30;;;;;;5029535;28;46380;-60
2022/07/05 06:34:07;;;;;;;4.97;2.70;;;26.60;32.00;;;;;;5034646;28;46432;-61
2022/07/05 06:36:33;;;;;;;5.50;2.50;;;26.50;31.90;;;;;;5035961;28;45849;-61
2022/07/05 06:38:59;;;;;;;5.70;2.60;;;26.40;32.00;;;;;;5032476;28;46390;-61
2022/07/05 06:41:24;;;;;;;4.13;2.53;;;26.40;31.80;;;;;;5035708;28;47192;-59
2022/07/05 06:43:50;;;;;;;6.53;2.63;;;26.20;31.90;;;;;;5032727;28;46506;-60
2022/07/05 06:46:15;;;;;;;8.10;2.60;;;26.00;32.20;;;;;;5034542;28;46510;-60
2022/07/05 06:48:41;;;;;;;9.97;2.40;;;26.00;32.30;;;;;;5029096;28;46822;-60
2022/07/05 06:51:06;;;;;;;10.37;2.60;;;26.20;31.90;;;;;;5035945;28;48730;-61
2022/07/05 06:53:32;;;;;;;10.23;2.53;;;26.50;31.40;;;;;;5031074;28;46422;-60
2022/07/05 06:55:58;;;;;;;6.33;2.60;;;26.50;30.80;;;;;;5030802;28;46521;-61
2022/07/05 06:58:24;;;;;;;6.73;1.97;;;26.50;30.80;;;;;;5031912;28;47023;-61
2022/07/05 07:00:49;;;;;;;2.77;1.60;;;26.70;30.30;;;;;;5031305;28;46439;-60
2022/07/05 07:03:15;;;;;;;15.87;2.40;;;26.70;29.80;;;;;;5030437;28;46574;-60
2022/07/05 07:05:41;;;;;;;3.60;1.93;;;26.80;29.50;;;;;;5029882;28;46740;-60
2022/07/05 07:10:51;;;;;;;7.37;2.10;;;26.90;29.60;;;;;;5029975;28;46703;-60
2022/07/05 07:13:17;;;;;;;7.57;2.13;;;26.90;29.80;;;;;;5031879;28;46398;-61
2022/07/05 07:15:42;;;;;;;4.40;2.10;;;26.80;30.00;;;;;;5032846;28;46396;-61
2022/07/05 07:18:08;;;;;;;4.43;2.17;;;26.80;30.00;;;;;;5030286;28;46441;-61
2022/07/05 07:20:34;;;;;;;5.10;2.30;;;26.80;30.00;;;;;;5028976;28;47116;-60
2022/07/05 07:22:59;;;;;;;6.70;2.33;;;26.50;29.90;;;;;;5030642;28;46406;-59
2022/07/05 07:25:25;;;;;;;5.20;1.80;;;26.30;29.70;;;;;;5030941;28;46444;-61
2022/07/05 07:27:53;;;;;;;3.90;2.10;;;26.20;29.40;;;;;;5030625;28;46403;-60
2022/07/05 07:30:22;;;;;;;3.80;2.33;;;26.10;29.60;;;;;;5028638;28;46425;-60
2022/07/05 07:32:48;;;;;;;5.70;2.00;;;26.20;30.00;;;;;;5032272;28;46399;-60
2022/07/05 07:35:14;;;;;;;5.90;2.10;;;26.50;30.20;;;;;;5033134;28;46394;-59
2022/07/05 07:37:40;;;;;;;6.70;2.10;;;26.60;29.60;;;;;;5033634;28;46750;-60
2022/07/05 07:40:06;;;;;;;8.70;3.07;;;26.90;29.10;;;;;;5032805;28;47301;-60
2022/07/05 07:42:32;;;;;;;5.00;2.00;;;27.10;28.80;;;;;;5031977;28;46447;-60
2022/07/05 07:44:58;;;;;;;8.20;2.30;;;27.40;28.20;;;;;;5031352;28;46458;-60
2022/07/05 07:47:24;;;;;;;9.17;2.23;;;27.70;27.40;;;;;;5034512;28;46496;-59
2022/07/05 07:49:50;;;;;;;5.60;1.90;;;28.10;27.50;;;;;;5030387;28;46430;-60
2022/07/05 07:52:16;;;;;;;3.97;2.20;;;28.50;26.20;;;;;;5032193;28;46338;-59
2022/07/05 07:54:41;;;;;;;4.37;1.93;;;28.50;25.50;;;;;;5030910;28;46311;-61
2022/07/05 07:57:07;;;;;;;3.97;1.63;;;28.30;25.60;;;;;;5032500;28;46506;-61
2022/07/05 07:59:34;;;;;;;6.33;1.80;;;27.90;26.60;;;;;;5032896;28;48569;-60
2022/07/05 08:01:59;;;;;;;3.47;2.07;;;27.70;26.60;;;;;;5035490;28;46770;-60
2022/07/05 08:04:25;;;;;;;4.20;2.10;;;27.90;27.50;;;;;;5037034;28;46448;-59
2022/07/05 08:06:51;;;;;;;5.40;1.70;;;28.00;26.50;;;;;;5033350;28;46395;-60
2022/07/05 08:09:16;;;;;;;10.73;2.30;;;28.00;26.50;;;;;;5035755;28;46402;-60
2022/07/05 08:11:42;;;;;;;7.50;2.70;;;27.90;26.40;;;;;;5035134;28;46409;-60
2022/07/05 08:14:08;;;;;;;6.33;1.90;;;27.70;26.90;;;;;;5038379;28;46466;-59
2022/07/05 08:16:34;;;;;;;4.20;1.70;;;27.00;25.70;;;;;;5032742;28;46511;-60
2022/07/05 08:21:44;;;;;;;4.87;1.80;;;26.80;25.00;;;;;;5034074;28;46497;-61
2022/07/05 08:24:12;;;;;;;4.57;1.67;;;26.60;23.20;;;;;;5033949;28;46344;-60
2022/07/05 08:26:39;;;;;;;3.57;1.77;;;26.30;21.40;;;;;;5032895;28;46316;-61
2022/07/05 08:29:08;;;;;;;3.00;1.67;;;26.10;21.20;;;;;;5034635;28;46536;-61
2022/07/05 08:31:36;;;;;;;5.63;1.70;;;26.30;20.80;;;;;;5030677;28;46469;-62
2022/07/05 08:34:03;;;;;;;4.77;1.40;;;26.30;20.50;;;;;;5031490;28;45877;-61
2022/07/05 08:36:29;;;;;;;4.17;1.70;;;26.40;20.10;;;;;;5037115;28;46601;-60
2022/07/05 08:38:54;;;;;;;5.40;1.87;;;26.40;20.30;;;;;;5035101;28;46681;-60
2022/07/05 08:41:21;;;;;;;5.07;1.57;;;26.50;19.60;;;;;;5033841;28;46390;-61
2022/07/05 08:43:48;;;;;;;5.67;1.53;;;26.60;19.40;;;;;;5029799;28;46395;-59
2022/07/05 08:46:16;;;;;;;4.60;1.70;;;26.80;19.30;;;;;;5030568;28;46607;-62
2022/07/05 08:48:43;;;;;;;4.00;1.80;;;27.00;18.70;;;;;;5030322;28;46359;-61
2022/07/05 08:51:17;;;;;;;10.03;2.20;;;26.70;18.30;;;;;;5032356;28;46475;-61
2022/07/05 08:53:44;;;;;;;4.37;1.80;;;26.80;17.60;;;;;;5032980;28;46356;-60
2022/07/05 08:56:11;;;;;;;6.87;1.90;;;27.20;17.30;;;;;;5031471;28;46543;-61
2022/07/05 08:58:37;;;;;;;20.23;1.90;;;26.90;17.50;;;;;;5031262;28;47467;-61
2022/07/05 09:01:03;;;;;;;5.07;1.93;;;26.90;17.20;;;;;;5032155;28;46453;-61
2022/07/05 09:03:42;;;;;;;8.17;2.10;;;27.00;17.10;;;;;;5031820;28;46389;-60
2022/07/05 09:06:15;;;;;;;4.53;2.00;;;27.20;16.50;;;;;;5030685;28;46368;-61
2022/07/05 09:08:41;;;;;;;7.90;1.70;;;27.00;17.10;;;;;;5031405;28;47129;-61
2022/07/05 09:11:16;;;;;;;9.77;1.70;;;27.00;17.40;;;;;;5031185;28;46394;-61
2022/07/05 09:13:44;;;;;;;6.87;1.70;;;26.60;18.20;;;;;;5036546;28;46467;-61
2022/07/05 09:16:11;;;;;;;4.97;1.90;;;26.00;17.40;;;;;;5035380;28;46555;-61
2022/07/05 09:18:47;;;;;;;5.67;2.00;;;25.70;18.40;;;;;;5032636;28;47920;-59
2022/07/05 09:21:21;;;;;;;6.20;1.50;;;25.50;18.90;;;;;;5031479;28;46426;-61
2022/07/05 09:23:55;;;;;;;4.53;1.80;;;25.70;18.30;;;;;;5032766;28;46623;-59
2022/07/05 09:26:31;;;;;;;8.03;1.67;;;26.00;17.80;;;;;;5031423;28;46469;-60
2022/07/05 09:28:57;;;;;;;5.00;1.60;;;26.60;17.20;;;;;;5032894;28;47315;-61
2022/07/05 09:31:28;;;;;;;6.27;1.80;;;27.10;16.00;;;;;;5030376;28;46359;-60
2022/07/05 09:33:54;;;;;;;4.40;1.80;;;27.50;16.20;;;;;;5033978;28;46405;-60
2022/07/05 09:36:19;;;;;;;5.77;2.00;;;27.20;15.30;;;;;;5034916;28;46360;-60
2022/07/05 09:38:51;;;;;;;3.40;1.77;;;26.80;14.70;;;;;;5029870;28;47137;-60
2022/07/05 09:41:17;;;;;;;5.20;2.10;;;27.10;14.80;;;;;;5036948;28;46358;-59
2022/07/05 09:43:43;;;;;;;3.80;1.73;;;27.20;15.00;;;;;;5029965;28;46462;-60
2022/07/05 09:46:09;;;;;;;4.93;1.83;;;27.10;15.30;;;;;;5036378;28;46604;-61
2022/07/05 09:48:35;;;;;;;4.30;1.70;;;27.20;16.00;;;;;;5033638;28;46233;-60
2022/07/05 09:51:13;;;;;;;6.53;1.63;;;27.50;16.20;;;;;;5033396;28;46419;-62
2022/07/05 09:53:48;;;;;;;2.73;1.43;;;27.30;14.30;;;;;;5031217;28;46450;-61
2022/07/05 09:56:14;;;;;;;9.07;1.70;;;26.90;14.70;;;;;;5035194;28;46532;-60
2022/07/05 09:58:40;;;;;;;3.20;1.80;;;26.30;14.20;;;;;;5029565;28;47032;-60
2022/07/05 10:01:29;;;;;;;5.27;1.50;;;26.10;14.90;;;;;;5034387;28;46526;-60
2022/07/05 10:03:57;;;;;;;4.33;1.80;;;25.90;14.90;;;;;;5029333;28;46426;-61
2022/07/05 10:06:26;;;;;;;3.77;1.80;;;25.70;15.20;;;;;;5033688;28;46374;-59
2022/07/05 10:08:53;;;;;;;6.43;2.10;;;25.90;15.40;;;;;;5035441;28;46737;-60
2022/07/05 10:11:20;;;;;;;5.43;1.77;;;26.50;15.20;;;;;;5029228;28;46398;-61
2022/07/05 10:13:50;;;;;;;8.43;2.17;;;27.20;15.00;;;;;;5031823;28;46416;-61
2022/07/05 10:16:17;;;;;;;7.30;2.00;;;27.60;14.50;;;;;;5028603;28;46686;-58
2022/07/05 10:18:48;;;;;;;8.50;2.03;;;27.90;14.60;;;;;;5029787;28;47061;-58
2022/07/05 10:21:15;;;;;;;2.93;1.47;;;27.90;14.30;;;;;;5032623;28;46456;-60
2022/07/05 10:23:48;;;;;;;4.00;1.90;;;28.20;14.60;;;;;;5033348;28;46361;-61
2022/07/05 10:26:15;;;;;;;3.63;2.20;;;28.50;14.40;;;;;;5036838;28;46187;-60
2022/07/05 10:28:45;;;;;;;3.70;1.63;;;28.80;13.60;;;;;;5032973;28;46410;-61
2022/07/05 10:31:13;;;;;;;3.93;1.53;;;28.90;13.60;;;;;;5030610;28;46341;-61
2022/07/05 10:33:40;;;;;;;4.30;1.67;;;29.10;13.70;;;;;;5031735;28;46417;-61
2022/07/05 10:36:06;;;;;;;4.37;1.80;;;29.10;13.50;;;;;;5036756;28;46700;-59
2022/07/05 10:38:37;;;;;;;3.30;1.40;;;28.70;12.70;;;;;;5031931;28;47125;-60
2022/07/05 10:41:06;;;;;;;3.77;1.80;;;28.10;12.20;;;;;;5033013;28;45870;-60
2022/07/05 10:43:32;;;;;;;5.27;1.60;;;27.90;12.90;;;;;;5030534;28;46363;-59
2022/07/05 10:45:59;;;;;;;3.67;2.17;;;28.10;12.90;;;;;;5031564;28;46061;-62
2022/07/05 10:48:26;;;;;;;4.27;1.60;;;28.20;13.60;;;;;;5049370;28;48340;-60
2022/07/05 10:50:56;;;;;;;3.40;1.63;;;27.90;13.10;;;;;;5032089;28;46557;-60
2022/07/05 10:53:26;;;;;;;3.80;1.57;;;27.50;13.60;;;;;;5033995;28;46376;-62
2022/07/05 10:55:58;;;;;;;3.60;1.77;;;27.30;12.60;;;;;;5031752;28;46712;-60
2022/07/05 10:58:43;;;;;;;3.20;1.40;;;27.10;13.10;;;;;;5031082;28;46465;-60
2022/07/05 11:01:11;;;;;;;3.30;1.60;;;27.20;12.90;;;;;;5032063;28;46396;-59
2022/07/05 11:03:42;;;;;;;4.40;1.40;;;27.30;12.40;;;;;;5033742;28;46437;-59
2022/07/05 11:06:18;;;;;;;3.53;1.73;;;27.30;13.00;;;;;;5029715;28;46486;-59
2022/07/05 11:08:59;;;;;;;2.70;1.50;;;27.60;12.80;;;;;;5030913;28;46374;-59
2022/07/05 11:11:39;;;;;;;2.70;1.67;;;27.90;13.10;;;;;;5029720;28;46773;-59
2022/07/05 11:14:25;;;;;;;3.77;1.87;;;28.10;12.90;;;;;;5034802;28;46407;-60
2022/07/05 11:17:13;;;;;;;3.67;1.33;;;28.30;13.30;;;;;;5028393;28;46481;-60
2022/07/05 11:20:01;;;;;;;2.93;1.50;;;28.30;11.40;;;;;;5027007;28;47283;-61
2022/07/05 11:22:26;;;;;;;2.60;1.50;;;28.40;11.50;;;;;;5027207;28;46359;-61
2022/07/05 11:24:53;;;;;;;2.83;1.40;;;28.60;11.40;;;;;;5033504;28;46373;-61
2022/07/05 11:27:18;;;;;;;2.83;1.37;;;28.60;10.60;;;;;;5028119;28;46149;-60
2022/07/05 11:29:46;;;;;;;4.20;1.63;;;28.40;10.40;;;;;;5030511;28;46475;-60
2022/07/05 11:32:14;;;;;;;4.40;1.83;;;28.70;10.10;;;;;;5029345;28;46402;-60
2022/07/05 11:34:41;;;;;;;3.13;1.77;;;29.10;9.50;;;;;;5028050;28;46383;-60
2022/07/05 11:37:32;;;;;;;7.63;1.60;;;29.40;9.50;;;;;;5032665;28;46778;-60
2022/07/05 11:40:06;;;;;;;4.43;1.70;;;29.80;9.50;;;;;;5028652;28;47103;-60
2022/07/05 11:42:34;;;;;;;4.13;1.90;;;29.80;9.80;;;;;;5028714;28;46335;-60
2022/07/05 11:45:00;;;;;;;6.20;1.90;;;29.40;10.10;;;;;;5028429;28;46352;-60
2022/07/05 11:47:27;;;;;;;3.17;1.60;;;28.70;10.80;;;;;;5032964;28;46586;-60
2022/07/05 11:49:56;;;;;;;3.90;1.60;;;28.40;10.40;;;;;;5027279;28;47186;-60
2022/07/05 11:52:26;;;;;;;4.67;1.63;;;28.20;11.00;;;;;;5031935;28;46529;-60
2022/07/05 11:54:52;;;;;;;3.10;1.60;;;28.10;9.70;;;;;;5026952;28;46417;-60
2022/07/05 11:57:19;;;;;;;4.87;1.50;;;28.10;9.50;;;;;;5032969;28;46406;-61
2022/07/05 11:59:45;;;;;;;3.20;1.80;;;28.20;9.50;;;;;;5026404;28;47244;-60
2022/07/05 12:02:10;;;;;;;9.13;1.70;;;28.10;9.90;;;;;;5028875;28;46881;-60
2022/07/05 12:04:36;;;;;;;5.57;1.60;;;27.70;10.60;;;;;;5031677;28;46413;-60
2022/07/05 12:07:02;;;;;;;3.27;1.67;;;27.80;11.40;;;;;;5026550;28;46506;-62
2022/07/05 12:15:06;;;;;;;2.83;1.50;;;28.50;10.70;;;;;;5032774;28;46406;-61
2022/07/05 12:17:34;;;;;;;3.77;1.70;;;28.60;10.90;;;;;;5032337;28;46625;-60
2022/07/05 12:20:00;;;;;;;3.93;1.73;;;28.60;11.10;;;;;;5033190;28;46456;-60
2022/07/05 12:22:35;;;;;;;2.90;1.50;;;28.60;11.30;;;;;;5032438;28;46429;-60
2022/07/05 12:25:08;;;;;;;5.60;1.47;;;28.30;10.40;;;;;;5033723;28;46947;-61
2022/07/05 12:27:37;;;;;;;6.10;1.80;;;28.40;11.10;;;;;;5036059;28;46561;-60
2022/07/05 12:30:05;;;;;;;6.70;1.67;;;28.30;10.60;;;;;;5032712;28;46975;-61
2022/07/05 12:32:31;;;;;;;3.33;1.63;;;28.40;10.70;;;;;;5033835;28;46630;-62
2022/07/05 12:34:58;;;;;;;6.10;1.50;;;28.60;10.50;;;;;;5032347;28;46430;-62
2022/07/05 12:37:25;;;;;;;4.10;1.70;;;28.50;10.80;;;;;;5033333;28;46422;-62
2022/07/05 12:40:06;;;;;;;3.87;1.50;;;28.30;10.00;;;;;;5030430;28;47335;-60
2022/07/05 12:42:36;;;;;;;2.97;1.60;;;28.00;9.70;;;;;;5034372;28;46506;-60
2022/07/05 12:45:09;;;;;;;3.10;1.67;;;27.80;10.30;;;;;;5029737;28;46457;-61
2022/07/05 12:47:49;;;;;;;2.80;1.40;;;27.70;10.70;;;;;;5031297;28;46367;-60
2022/07/05 12:50:14;;;;;;;3.00;1.30;;;27.40;10.60;;;;;;5035059;28;46437;-61
2022/07/05 12:58:53;;;;;;;3.53;1.47;;;28.20;10.30;;;;;;5034372;28;46312;-60
2022/07/05 13:01:34;;;;;;;4.20;1.40;;;28.20;10.30;;;;;;5035878;28;46477;-60